sensor_id;sensor_type;location;lat;lon;timestamp;P1;durP1;ratioP1;P2;durP2;ratioP2
20095;SDS011;10207;50.942;6.900;2022-12-22T00:01:01;4.93;;;3.72;;
20095;SDS011;10207;50.942;6.900;2022-12-22T00:03:46;6.05;;;3.60;;
20095;SDS011;10207;50.942;6.900;2022-12-22T00:06:31;8.18;;;3.90;;
20095;SDS011;10207;50.942;6.900;2022-12-22T00:09:15;5.90;;;3.33;;
20095;SDS011;10207;50.942;6.900;2022-12-22T00:11:59;5.75;;;3.40;;
20095;SDS011;10207;50.942;6.900;2022-12-22T00:14:44;5.28;;;3.20;;
20095;SDS011;10207;50.942;6.900;2022-12-22T00:17:29;5.70;;;3.38;;
20095;SDS011;10207;50.942;6.900;2022-12-22T00:20:17;3.53;;;2.80;;
20095;SDS011;10207;50.942;6.900;2022-12-22T00:23:02;4.95;;;3.38;;
20095;SDS011;10207;50.942;6.900;2022-12-22T00:25:46;3.83;;;2.83;;
20095;SDS011;10207;50.942;6.900;2022-12-22T00:28:31;3.60;;;2.72;;
20095;SDS011;10207;50.942;6.900;2022-12-22T00:31:16;4.15;;;2.60;;
20095;SDS011;10207;50.942;6.900;2022-12-22T00:34:00;3.67;;;2.40;;
20095;SDS011;10207;50.942;6.900;2022-12-22T00:36:45;3.22;;;2.08;;
20095;SDS011;10207;50.942;6.900;2022-12-22T00:39:30;2.63;;;1.98;;
20095;SDS011;10207;50.942;6.900;2022-12-22T00:42:14;6.55;;;2.03;;
20095;SDS011;10207;50.942;6.900;2022-12-22T00:44:58;3.10;;;1.55;;
20095;SDS011;10207;50.942;6.900;2022-12-22T00:47:43;3.17;;;1.80;;
20095;SDS011;10207;50.942;6.900;2022-12-22T00:50:31;2.45;;;1.70;;
20095;SDS011;10207;50.942;6.900;2022-12-22T00:53:17;2.92;;;1.80;;
20095;SDS011;10207;50.942;6.900;2022-12-22T00:56:03;2.85;;;1.80;;
20095;SDS011;10207;50.942;6.900;2022-12-22T00:58:48;2.80;;;1.48;;
20095;SDS011;10207;50.942;6.900;2022-12-22T01:01:33;2.55;;;1.40;;
20095;SDS011;10207;50.942;6.900;2022-12-22T01:04:18;2.60;;;1.40;;
20095;SDS011;10207;50.942;6.900;2022-12-22T01:07:03;2.03;;;1.45;;
20095;SDS011;10207;50.942;6.900;2022-12-22T01:09:48;2.90;;;1.42;;
20095;SDS011;10207;50.942;6.900;2022-12-22T01:12:33;2.78;;;1.52;;
20095;SDS011;10207;50.942;6.900;2022-12-22T01:15:19;2.42;;;1.50;;
20095;SDS011;10207;50.942;6.900;2022-12-22T01:18:04;2.58;;;1.45;;
20095;SDS011;10207;50.942;6.900;2022-12-22T01:20:48;2.40;;;1.60;;
20095;SDS011;10207;50.942;6.900;2022-12-22T01:23:33;3.60;;;1.85;;
20095;SDS011;10207;50.942;6.900;2022-12-22T01:26:18;2.65;;;1.58;;
20095;SDS011;10207;50.942;6.900;2022-12-22T01:29:02;3.97;;;1.73;;
20095;SDS011;10207;50.942;6.900;2022-12-22T01:31:47;2.45;;;1.45;;
20095;SDS011;10207;50.942;6.900;2022-12-22T01:34:31;2.50;;;1.48;;
20095;SDS011;10207;50.942;6.900;2022-12-22T01:37:15;1.52;;;1.20;;
20095;SDS011;10207;50.942;6.900;2022-12-22T01:40:00;3.03;;;1.77;;
20095;SDS011;10207;50.942;6.900;2022-12-22T01:42:44;3.10;;;2.03;;
20095;SDS011;10207;50.942;6.900;2022-12-22T01:45:29;2.88;;;1.67;;
20095;SDS011;10207;50.942;6.900;2022-12-22T01:48:15;2.05;;;1.63;;
20095;SDS011;10207;50.942;6.900;2022-12-22T01:51:08;3.38;;;1.70;;
20095;SDS011;10207;50.942;6.900;2022-12-22T01:53:53;2.95;;;1.70;;
20095;SDS011;10207;50.942;6.900;2022-12-22T01:56:38;2.42;;;1.50;;
20095;SDS011;10207;50.942;6.900;2022-12-22T01:59:22;3.00;;;1.95;;
20095;SDS011;10207;50.942;6.900;2022-12-22T02:02:06;3.22;;;1.58;;
20095;SDS011;10207;50.942;6.900;2022-12-22T02:04:51;4.72;;;1.90;;
20095;SDS011;10207;50.942;6.900;2022-12-22T02:07:50;4.35;;;1.92;;
20095;SDS011;10207;50.942;6.900;2022-12-22T02:10:53;5.60;;;2.10;;
20095;SDS011;10207;50.942;6.900;2022-12-22T02:13:51;4.70;;;1.83;;
20095;SDS011;10207;50.942;6.900;2022-12-22T02:16:38;4.32;;;1.85;;
20095;SDS011;10207;50.942;6.900;2022-12-22T02:25:36;3.72;;;2.33;;
20095;SDS011;10207;50.942;6.900;2022-12-22T02:28:24;4.40;;;2.25;;
20095;SDS011;10207;50.942;6.900;2022-12-22T02:31:09;3.60;;;1.73;;
20095;SDS011;10207;50.942;6.900;2022-12-22T02:33:53;2.60;;;1.83;;
20095;SDS011;10207;50.942;6.900;2022-12-22T02:36:42;3.83;;;2.10;;
20095;SDS011;10207;50.942;6.900;2022-12-22T02:48:08;2.22;;;1.67;;
20095;SDS011;10207;50.942;6.900;2022-12-22T02:50:59;4.20;;;1.65;;
20095;SDS011;10207;50.942;6.900;2022-12-22T02:53:44;3.53;;;1.80;;
20095;SDS011;10207;50.942;6.900;2022-12-22T02:56:28;3.20;;;2.00;;
20095;SDS011;10207;50.942;6.900;2022-12-22T02:59:13;2.83;;;1.95;;
20095;SDS011;10207;50.942;6.900;2022-12-22T03:01:58;3.28;;;1.55;;
20095;SDS011;10207;50.942;6.900;2022-12-22T03:04:42;1.98;;;1.55;;
20095;SDS011;10207;50.942;6.900;2022-12-22T03:07:26;4.28;;;1.83;;
20095;SDS011;10207;50.942;6.900;2022-12-22T03:10:11;1.90;;;1.20;;
20095;SDS011;10207;50.942;6.900;2022-12-22T03:12:59;2.70;;;1.77;;
20095;SDS011;10207;50.942;6.900;2022-12-22T03:15:43;3.05;;;1.55;;
20095;SDS011;10207;50.942;6.900;2022-12-22T03:18:27;3.10;;;1.27;;
20095;SDS011;10207;50.942;6.900;2022-12-22T03:21:12;3.35;;;1.50;;
20095;SDS011;10207;50.942;6.900;2022-12-22T03:23:56;2.08;;;1.50;;
20095;SDS011;10207;50.942;6.900;2022-12-22T03:26:41;2.42;;;1.52;;
20095;SDS011;10207;50.942;6.900;2022-12-22T03:29:06;2.90;;;1.70;;
20095;SDS011;10207;50.942;6.900;2022-12-22T03:31:32;2.22;;;1.73;;
20095;SDS011;10207;50.942;6.900;2022-12-22T03:33:58;3.50;;;2.03;;
20095;SDS011;10207;50.942;6.900;2022-12-22T03:36:23;3.78;;;2.60;;
20095;SDS011;10207;50.942;6.900;2022-12-22T03:38:49;2.88;;;1.88;;
20095;SDS011;10207;50.942;6.900;2022-12-22T03:41:15;3.85;;;2.53;;
20095;SDS011;10207;50.942;6.900;2022-12-22T03:43:59;4.13;;;2.65;;
20095;SDS011;10207;50.942;6.900;2022-12-22T03:46:44;4.50;;;2.78;;
20095;SDS011;10207;50.942;6.900;2022-12-22T03:49:09;3.88;;;2.85;;
20095;SDS011;10207;50.942;6.900;2022-12-22T03:51:45;3.92;;;2.55;;
20095;SDS011;10207;50.942;6.900;2022-12-22T03:54:16;5.65;;;2.10;;
20095;SDS011;10207;50.942;6.900;2022-12-22T03:56:42;4.10;;;2.10;;
20095;SDS011;10207;50.942;6.900;2022-12-22T03:59:08;5.93;;;3.10;;
20095;SDS011;10207;50.942;6.900;2022-12-22T04:01:36;4.50;;;2.00;;
20095;SDS011;10207;50.942;6.900;2022-12-22T04:04:03;3.75;;;1.50;;
20095;SDS011;10207;50.942;6.900;2022-12-22T04:06:28;2.92;;;1.67;;
20095;SDS011;10207;50.942;6.900;2022-12-22T04:08:54;5.03;;;2.10;;
20095;SDS011;10207;50.942;6.900;2022-12-22T04:11:20;5.50;;;1.95;;
20095;SDS011;10207;50.942;6.900;2022-12-22T04:14:04;3.15;;;1.67;;
20095;SDS011;10207;50.942;6.900;2022-12-22T04:16:30;5.82;;;2.00;;
20095;SDS011;10207;50.942;6.900;2022-12-22T04:18:56;2.33;;;1.42;;
20095;SDS011;10207;50.942;6.900;2022-12-22T04:21:21;3.38;;;1.80;;
20095;SDS011;10207;50.942;6.900;2022-12-22T04:23:47;2.85;;;1.50;;
20095;SDS011;10207;50.942;6.900;2022-12-22T04:26:16;5.30;;;1.90;;
20095;SDS011;10207;50.942;6.900;2022-12-22T04:28:42;3.53;;;2.28;;
20095;SDS011;10207;50.942;6.900;2022-12-22T04:31:08;6.10;;;3.00;;
20095;SDS011;10207;50.942;6.900;2022-12-22T04:33:34;7.38;;;3.53;;
20095;SDS011;10207;50.942;6.900;2022-12-22T04:36:00;4.65;;;2.97;;
20095;SDS011;10207;50.942;6.900;2022-12-22T04:38:25;10.93;;;3.38;;
20095;SDS011;10207;50.942;6.900;2022-12-22T04:40:51;4.18;;;2.80;;
20095;SDS011;10207;50.942;6.900;2022-12-22T04:43:17;4.80;;;3.00;;
20095;SDS011;10207;50.942;6.900;2022-12-22T04:45:43;4.65;;;1.80;;
20095;SDS011;10207;50.942;6.900;2022-12-22T04:48:09;3.33;;;1.20;;
20095;SDS011;10207;50.942;6.900;2022-12-22T04:50:35;3.17;;;1.00;;
20095;SDS011;10207;50.942;6.900;2022-12-22T04:53:01;2.00;;;0.70;;
20095;SDS011;10207;50.942;6.900;2022-12-22T04:55:26;1.02;;;0.60;;
20095;SDS011;10207;50.942;6.900;2022-12-22T04:57:52;2.05;;;0.85;;
20095;SDS011;10207;50.942;6.900;2022-12-22T05:00:18;1.52;;;0.82;;
20095;SDS011;10207;50.942;6.900;2022-12-22T05:02:44;5.15;;;1.10;;
20095;SDS011;10207;50.942;6.900;2022-12-22T05:05:09;1.60;;;0.80;;
20095;SDS011;10207;50.942;6.900;2022-12-22T05:07:35;2.45;;;0.95;;
20095;SDS011;10207;50.942;6.900;2022-12-22T05:10:02;2.58;;;1.10;;
20095;SDS011;10207;50.942;6.900;2022-12-22T05:12:28;2.47;;;1.05;;
20095;SDS011;10207;50.942;6.900;2022-12-22T05:15:12;2.63;;;0.90;;
20095;SDS011;10207;50.942;6.900;2022-12-22T05:17:38;4.60;;;1.60;;
20095;SDS011;10207;50.942;6.900;2022-12-22T05:20:03;2.13;;;1.27;;
20095;SDS011;10207;50.942;6.900;2022-12-22T05:22:29;2.30;;;1.35;;
20095;SDS011;10207;50.942;6.900;2022-12-22T05:24:55;3.22;;;1.80;;
20095;SDS011;10207;50.942;6.900;2022-12-22T05:27:21;6.60;;;1.67;;
20095;SDS011;10207;50.942;6.900;2022-12-22T05:29:47;2.47;;;1.60;;
20095;SDS011;10207;50.942;6.900;2022-12-22T05:32:13;7.78;;;3.17;;
20095;SDS011;10207;50.942;6.900;2022-12-22T05:34:38;8.43;;;2.47;;
20095;SDS011;10207;50.942;6.900;2022-12-22T05:37:04;6.45;;;2.20;;
20095;SDS011;10207;50.942;6.900;2022-12-22T05:39:30;6.35;;;3.60;;
20095;SDS011;10207;50.942;6.900;2022-12-22T05:41:55;6.85;;;4.22;;
20095;SDS011;10207;50.942;6.900;2022-12-22T05:44:21;7.05;;;4.35;;
20095;SDS011;10207;50.942;6.900;2022-12-22T05:46:49;8.13;;;4.18;;
20095;SDS011;10207;50.942;6.900;2022-12-22T05:49:15;8.27;;;4.70;;
20095;SDS011;10207;50.942;6.900;2022-12-22T05:51:41;7.32;;;4.60;;
20095;SDS011;10207;50.942;6.900;2022-12-22T05:54:08;8.00;;;4.50;;
20095;SDS011;10207;50.942;6.900;2022-12-22T05:56:33;8.38;;;4.40;;
20095;SDS011;10207;50.942;6.900;2022-12-22T05:58:59;7.13;;;4.90;;
20095;SDS011;10207;50.942;6.900;2022-12-22T06:01:25;7.50;;;5.13;;
20095;SDS011;10207;50.942;6.900;2022-12-22T06:03:50;12.35;;;5.45;;
20095;SDS011;10207;50.942;6.900;2022-12-22T06:06:16;9.02;;;5.70;;
20095;SDS011;10207;50.942;6.900;2022-12-22T06:08:42;9.63;;;5.85;;
20095;SDS011;10207;50.942;6.900;2022-12-22T06:11:07;9.60;;;5.78;;
20095;SDS011;10207;50.942;6.900;2022-12-22T06:13:33;8.95;;;5.88;;
20095;SDS011;10207;50.942;6.900;2022-12-22T06:15:59;12.85;;;6.07;;
20095;SDS011;10207;50.942;6.900;2022-12-22T06:18:25;11.10;;;5.47;;
20095;SDS011;10207;50.942;6.900;2022-12-22T06:20:51;12.07;;;5.90;;
20095;SDS011;10207;50.942;6.900;2022-12-22T06:23:18;9.27;;;5.47;;
20095;SDS011;10207;50.942;6.900;2022-12-22T06:25:52;13.05;;;7.00;;
20095;SDS011;10207;50.942;6.900;2022-12-22T06:28:18;12.15;;;6.00;;
20095;SDS011;10207;50.942;6.900;2022-12-22T06:30:43;10.50;;;5.85;;
20095;SDS011;10207;50.942;6.900;2022-12-22T06:33:09;18.60;;;6.30;;
20095;SDS011;10207;50.942;6.900;2022-12-22T06:35:35;9.65;;;5.97;;
20095;SDS011;10207;50.942;6.900;2022-12-22T06:38:01;9.85;;;6.15;;
20095;SDS011;10207;50.942;6.900;2022-12-22T06:40:27;10.98;;;5.93;;
20095;SDS011;10207;50.942;6.900;2022-12-22T06:42:52;9.27;;;5.57;;
20095;SDS011;10207;50.942;6.900;2022-12-22T06:45:38;14.18;;;6.82;;
20095;SDS011;10207;50.942;6.900;2022-12-22T06:48:05;10.13;;;6.45;;
20095;SDS011;10207;50.942;6.900;2022-12-22T06:50:31;11.48;;;6.30;;
20095;SDS011;10207;50.942;6.900;2022-12-22T06:52:56;15.35;;;6.65;;
20095;SDS011;10207;50.942;6.900;2022-12-22T06:55:22;17.58;;;7.05;;
20095;SDS011;10207;50.942;6.900;2022-12-22T06:57:48;15.40;;;7.80;;
20095;SDS011;10207;50.942;6.900;2022-12-22T07:00:14;19.38;;;9.55;;
20095;SDS011;10207;50.942;6.900;2022-12-22T07:02:40;22.40;;;8.90;;
20095;SDS011;10207;50.942;6.900;2022-12-22T07:05:05;17.02;;;8.55;;
20095;SDS011;10207;50.942;6.900;2022-12-22T07:07:31;18.90;;;8.80;;
20095;SDS011;10207;50.942;6.900;2022-12-22T07:09:57;26.27;;;9.98;;
20095;SDS011;10207;50.942;6.900;2022-12-22T07:12:23;29.92;;;10.13;;
20095;SDS011;10207;50.942;6.900;2022-12-22T07:14:48;27.33;;;10.82;;
20095;SDS011;10207;50.942;6.900;2022-12-22T07:17:14;31.65;;;11.60;;
20095;SDS011;10207;50.942;6.900;2022-12-22T07:19:40;20.25;;;8.93;;
20095;SDS011;10207;50.942;6.900;2022-12-22T07:22:06;25.35;;;10.60;;
20095;SDS011;10207;50.942;6.900;2022-12-22T07:24:31;25.95;;;10.27;;
20095;SDS011;10207;50.942;6.900;2022-12-22T07:26:57;22.40;;;10.63;;
20095;SDS011;10207;50.942;6.900;2022-12-22T07:29:23;28.35;;;11.32;;
20095;SDS011;10207;50.942;6.900;2022-12-22T07:31:49;27.85;;;11.07;;
20095;SDS011;10207;50.942;6.900;2022-12-22T07:34:14;29.80;;;11.07;;
20095;SDS011;10207;50.942;6.900;2022-12-22T07:36:40;29.25;;;11.48;;
20095;SDS011;10207;50.942;6.900;2022-12-22T07:39:06;33.50;;;12.30;;
20095;SDS011;10207;50.942;6.900;2022-12-22T07:41:32;31.02;;;11.98;;
20095;SDS011;10207;50.942;6.900;2022-12-22T07:44:16;32.78;;;11.90;;
20095;SDS011;10207;50.942;6.900;2022-12-22T07:46:42;34.35;;;12.25;;
20095;SDS011;10207;50.942;6.900;2022-12-22T07:49:08;35.65;;;13.02;;
20095;SDS011;10207;50.942;6.900;2022-12-22T07:51:54;34.72;;;12.02;;
20095;SDS011;10207;50.942;6.900;2022-12-22T07:54:20;29.02;;;12.20;;
20095;SDS011;10207;50.942;6.900;2022-12-22T07:56:46;32.58;;;13.27;;
20095;SDS011;10207;50.942;6.900;2022-12-22T07:59:12;32.78;;;12.93;;
20095;SDS011;10207;50.942;6.900;2022-12-22T08:01:38;32.80;;;12.07;;
20095;SDS011;10207;50.942;6.900;2022-12-22T08:04:06;34.60;;;12.77;;
20095;SDS011;10207;50.942;6.900;2022-12-22T08:06:32;36.72;;;12.32;;
20095;SDS011;10207;50.942;6.900;2022-12-22T08:08:59;33.08;;;12.40;;
20095;SDS011;10207;50.942;6.900;2022-12-22T08:11:25;32.35;;;11.90;;
20095;SDS011;10207;50.942;6.900;2022-12-22T08:13:50;46.05;;;13.55;;
20095;SDS011;10207;50.942;6.900;2022-12-22T08:16:16;40.33;;;13.35;;
20095;SDS011;10207;50.942;6.900;2022-12-22T08:18:42;42.92;;;12.65;;
20095;SDS011;10207;50.942;6.900;2022-12-22T08:21:09;29.48;;;10.30;;
20095;SDS011;10207;50.942;6.900;2022-12-22T08:23:34;28.83;;;11.57;;
20095;SDS011;10207;50.942;6.900;2022-12-22T08:26:06;27.58;;;10.50;;
20095;SDS011;10207;50.942;6.900;2022-12-22T08:28:34;32.13;;;10.70;;
20095;SDS011;10207;50.942;6.900;2022-12-22T08:31:01;27.35;;;10.57;;
20095;SDS011;10207;50.942;6.900;2022-12-22T08:33:28;28.80;;;10.70;;
20095;SDS011;10207;50.942;6.900;2022-12-22T08:35:54;29.73;;;11.10;;
20095;SDS011;10207;50.942;6.900;2022-12-22T08:38:20;27.17;;;10.90;;
20095;SDS011;10207;50.942;6.900;2022-12-22T08:40:46;29.52;;;12.02;;
20095;SDS011;10207;50.942;6.900;2022-12-22T08:43:13;35.47;;;13.00;;
20095;SDS011;10207;50.942;6.900;2022-12-22T08:45:39;35.10;;;13.50;;
20095;SDS011;10207;50.942;6.900;2022-12-22T08:48:05;32.17;;;12.77;;
20095;SDS011;10207;50.942;6.900;2022-12-22T08:50:31;37.75;;;14.18;;
20095;SDS011;10207;50.942;6.900;2022-12-22T08:53:04;29.73;;;12.45;;
20095;SDS011;10207;50.942;6.900;2022-12-22T08:55:30;35.90;;;12.38;;
20095;SDS011;10207;50.942;6.900;2022-12-22T08:57:56;28.55;;;12.63;;
20095;SDS011;10207;50.942;6.900;2022-12-22T09:00:21;31.50;;;12.95;;
20095;SDS011;10207;50.942;6.900;2022-12-22T09:02:47;38.95;;;14.57;;
20095;SDS011;10207;50.942;6.900;2022-12-22T09:05:13;39.00;;;15.20;;
20095;SDS011;10207;50.942;6.900;2022-12-22T09:07:39;39.03;;;14.35;;
20095;SDS011;10207;50.942;6.900;2022-12-22T09:10:06;40.55;;;14.93;;
20095;SDS011;10207;50.942;6.900;2022-12-22T09:12:32;38.53;;;14.73;;
20095;SDS011;10207;50.942;6.900;2022-12-22T09:14:58;42.78;;;15.93;;
20095;SDS011;10207;50.942;6.900;2022-12-22T09:17:23;38.50;;;15.00;;
20095;SDS011;10207;50.942;6.900;2022-12-22T09:19:49;36.40;;;14.45;;
20095;SDS011;10207;50.942;6.900;2022-12-22T09:22:15;36.78;;;14.93;;
20095;SDS011;10207;50.942;6.900;2022-12-22T09:24:41;37.15;;;16.30;;
20095;SDS011;10207;50.942;6.900;2022-12-22T09:27:07;40.40;;;15.75;;
20095;SDS011;10207;50.942;6.900;2022-12-22T09:29:34;37.50;;;16.55;;
20095;SDS011;10207;50.942;6.900;2022-12-22T09:32:00;37.75;;;16.70;;
20095;SDS011;10207;50.942;6.900;2022-12-22T09:34:26;40.40;;;17.55;;
20095;SDS011;10207;50.942;6.900;2022-12-22T09:36:51;38.83;;;17.73;;
20095;SDS011;10207;50.942;6.900;2022-12-22T09:39:17;47.30;;;19.33;;
20095;SDS011;10207;50.942;6.900;2022-12-22T09:41:50;40.83;;;18.33;;
20095;SDS011;10207;50.942;6.900;2022-12-22T09:46:45;38.80;;;18.67;;
20095;SDS011;10207;50.942;6.900;2022-12-22T09:49:12;39.25;;;18.02;;
20095;SDS011;10207;50.942;6.900;2022-12-22T09:51:40;42.28;;;18.52;;
20095;SDS011;10207;50.942;6.900;2022-12-22T09:54:08;44.85;;;18.42;;
20095;SDS011;10207;50.942;6.900;2022-12-22T09:56:35;41.67;;;19.17;;
20095;SDS011;10207;50.942;6.900;2022-12-22T09:59:01;46.42;;;19.73;;
20095;SDS011;10207;50.942;6.900;2022-12-22T10:03:59;49.38;;;21.88;;
20095;SDS011;10207;50.942;6.900;2022-12-22T10:06:38;49.33;;;21.25;;
20095;SDS011;10207;50.942;6.900;2022-12-22T10:09:16;50.50;;;20.77;;
20095;SDS011;10207;50.942;6.900;2022-12-22T10:11:52;49.58;;;19.75;;
20095;SDS011;10207;50.942;6.900;2022-12-22T10:14:19;47.55;;;20.08;;
20095;SDS011;10207;50.942;6.900;2022-12-22T10:16:45;45.20;;;17.80;;
20095;SDS011;10207;50.942;6.900;2022-12-22T10:19:11;38.65;;;16.55;;
20095;SDS011;10207;50.942;6.900;2022-12-22T10:21:37;39.63;;;16.50;;
20095;SDS011;10207;50.942;6.900;2022-12-22T10:24:13;41.17;;;16.63;;
20095;SDS011;10207;50.942;6.900;2022-12-22T10:26:39;35.20;;;15.07;;
20095;SDS011;10207;50.942;6.900;2022-12-22T10:29:06;40.15;;;16.60;;
20095;SDS011;10207;50.942;6.900;2022-12-22T10:31:35;35.10;;;16.55;;
20095;SDS011;10207;50.942;6.900;2022-12-22T10:34:16;33.13;;;14.85;;
20095;SDS011;10207;50.942;6.900;2022-12-22T10:36:46;32.45;;;14.43;;
20095;SDS011;10207;50.942;6.900;2022-12-22T10:39:17;28.15;;;14.23;;
20095;SDS011;10207;50.942;6.900;2022-12-22T10:41:47;28.55;;;14.63;;
20095;SDS011;10207;50.942;6.900;2022-12-22T10:46:48;29.27;;;15.60;;
20095;SDS011;10207;50.942;6.900;2022-12-22T10:49:21;27.83;;;13.77;;
20095;SDS011;10207;50.942;6.900;2022-12-22T10:51:52;24.70;;;13.52;;
20095;SDS011;10207;50.942;6.900;2022-12-22T10:54:28;21.75;;;11.75;;
20095;SDS011;10207;50.942;6.900;2022-12-22T10:57:02;21.30;;;11.70;;
20095;SDS011;10207;50.942;6.900;2022-12-22T10:59:29;18.65;;;10.32;;
20095;SDS011;10207;50.942;6.900;2022-12-22T11:02:04;16.63;;;9.98;;
20095;SDS011;10207;50.942;6.900;2022-12-22T11:04:40;16.67;;;9.15;;
20095;SDS011;10207;50.942;6.900;2022-12-22T11:07:06;16.02;;;9.35;;
20095;SDS011;10207;50.942;6.900;2022-12-22T11:09:33;14.88;;;9.20;;
20095;SDS011;10207;50.942;6.900;2022-12-22T11:12:01;12.40;;;8.25;;
20095;SDS011;10207;50.942;6.900;2022-12-22T11:14:44;11.18;;;6.32;;
20095;SDS011;10207;50.942;6.900;2022-12-22T11:24:46;10.25;;;6.60;;
20095;SDS011;10207;50.942;6.900;2022-12-22T11:34:57;11.93;;;7.57;;
20095;SDS011;10207;50.942;6.900;2022-12-22T11:48:11;12.75;;;8.15;;
20095;SDS011;10207;50.942;6.900;2022-12-22T11:50:43;15.40;;;8.07;;
20095;SDS011;10207;50.942;6.900;2022-12-22T12:04:07;9.70;;;5.40;;
20095;SDS011;10207;50.942;6.900;2022-12-22T12:15:30;9.60;;;6.22;;
20095;SDS011;10207;50.942;6.900;2022-12-22T12:17:34;10.13;;;6.03;;
20095;SDS011;10207;50.942;6.900;2022-12-22T12:22:43;9.55;;;5.40;;
20095;SDS011;10207;50.942;6.900;2022-12-22T12:25:23;8.15;;;5.72;;
20095;SDS011;10207;50.942;6.900;2022-12-22T12:30:16;8.95;;;4.40;;
20095;SDS011;10207;50.942;6.900;2022-12-22T12:32:45;7.22;;;3.83;;
20095;SDS011;10207;50.942;6.900;2022-12-22T12:37:42;7.57;;;3.60;;
20095;SDS011;10207;50.942;6.900;2022-12-22T12:42:52;10.18;;;4.63;;
20095;SDS011;10207;50.942;6.900;2022-12-22T12:48:24;10.32;;;4.53;;
20095;SDS011;10207;50.942;6.900;2022-12-22T12:50:42;9.15;;;4.60;;
20095;SDS011;10207;50.942;6.900;2022-12-22T12:53:08;8.82;;;5.32;;
20095;SDS011;10207;50.942;6.900;2022-12-22T12:58:03;9.10;;;5.30;;
20095;SDS011;10207;50.942;6.900;2022-12-22T13:02:55;10.43;;;5.40;;
20095;SDS011;10207;50.942;6.900;2022-12-22T13:13:04;10.20;;;4.50;;
20095;SDS011;10207;50.942;6.900;2022-12-22T13:15:30;12.02;;;5.20;;
20095;SDS011;10207;50.942;6.900;2022-12-22T13:17:57;8.82;;;4.75;;
20095;SDS011;10207;50.942;6.900;2022-12-22T13:20:24;9.45;;;4.05;;
20095;SDS011;10207;50.942;6.900;2022-12-22T13:22:51;11.05;;;4.13;;
20095;SDS011;10207;50.942;6.900;2022-12-22T13:25:17;7.45;;;4.32;;
20095;SDS011;10207;50.942;6.900;2022-12-22T13:27:43;8.23;;;4.95;;
20095;SDS011;10207;50.942;6.900;2022-12-22T13:30:16;6.95;;;3.90;;
20095;SDS011;10207;50.942;6.900;2022-12-22T13:32:42;8.52;;;4.75;;
20095;SDS011;10207;50.942;6.900;2022-12-22T13:35:22;8.50;;;4.38;;
20095;SDS011;10207;50.942;6.900;2022-12-22T13:37:49;6.30;;;3.63;;
20095;SDS011;10207;50.942;6.900;2022-12-22T13:45:17;9.90;;;3.95;;
20095;SDS011;10207;50.942;6.900;2022-12-22T13:47:44;7.10;;;3.67;;
20095;SDS011;10207;50.942;6.900;2022-12-22T13:50:45;6.80;;;4.72;;
20095;SDS011;10207;50.942;6.900;2022-12-22T13:53:04;6.82;;;3.97;;
20095;SDS011;10207;50.942;6.900;2022-12-22T13:55:31;9.10;;;4.43;;
20095;SDS011;10207;50.942;6.900;2022-12-22T13:57:59;8.05;;;4.47;;
20095;SDS011;10207;50.942;6.900;2022-12-22T14:00:28;8.85;;;4.70;;
20095;SDS011;10207;50.942;6.900;2022-12-22T14:02:54;9.57;;;4.65;;
20095;SDS011;10207;50.942;6.900;2022-12-22T14:05:19;8.95;;;4.50;;
20095;SDS011;10207;50.942;6.900;2022-12-22T14:07:58;8.82;;;4.55;;
20095;SDS011;10207;50.942;6.900;2022-12-22T14:10:32;11.90;;;5.05;;
20095;SDS011;10207;50.942;6.900;2022-12-22T14:13:00;11.57;;;5.22;;
20095;SDS011;10207;50.942;6.900;2022-12-22T14:15:26;8.18;;;4.65;;
20095;SDS011;10207;50.942;6.900;2022-12-22T14:17:51;7.47;;;4.93;;
20095;SDS011;10207;50.942;6.900;2022-12-22T14:20:28;9.45;;;4.97;;
20095;SDS011;10207;50.942;6.900;2022-12-22T14:25:23;8.85;;;5.07;;
20095;SDS011;10207;50.942;6.900;2022-12-22T14:27:52;11.40;;;4.70;;
20095;SDS011;10207;50.942;6.900;2022-12-22T14:30:20;7.75;;;4.57;;
20095;SDS011;10207;50.942;6.900;2022-12-22T14:32:47;6.28;;;3.42;;
20095;SDS011;10207;50.942;6.900;2022-12-22T14:35:34;8.98;;;4.70;;
20095;SDS011;10207;50.942;6.900;2022-12-22T14:40:41;8.15;;;3.53;;
20095;SDS011;10207;50.942;6.900;2022-12-22T14:45:45;3.40;;;2.35;;
20095;SDS011;10207;50.942;6.900;2022-12-22T14:48:19;5.40;;;2.60;;
20095;SDS011;10207;50.942;6.900;2022-12-22T14:50:49;5.43;;;2.20;;
20095;SDS011;10207;50.942;6.900;2022-12-22T14:53:38;3.33;;;1.60;;
20095;SDS011;10207;50.942;6.900;2022-12-22T14:56:02;4.07;;;2.45;;
20095;SDS011;10207;50.942;6.900;2022-12-22T14:58:29;2.95;;;1.92;;
20095;SDS011;10207;50.942;6.900;2022-12-22T15:03:40;2.92;;;2.00;;
20095;SDS011;10207;50.942;6.900;2022-12-22T15:06:22;2.72;;;1.95;;
20095;SDS011;10207;50.942;6.900;2022-12-22T15:08:48;4.85;;;2.22;;
20095;SDS011;10207;50.942;6.900;2022-12-22T15:11:17;2.70;;;1.92;;
20095;SDS011;10207;50.942;6.900;2022-12-22T15:13:44;4.85;;;2.38;;
20095;SDS011;10207;50.942;6.900;2022-12-22T15:16:14;3.53;;;2.38;;
20095;SDS011;10207;50.942;6.900;2022-12-22T15:18:41;4.07;;;2.90;;
20095;SDS011;10207;50.942;6.900;2022-12-22T15:21:07;4.05;;;2.80;;
20095;SDS011;10207;50.942;6.900;2022-12-22T15:23:36;8.00;;;2.85;;
20095;SDS011;10207;50.942;6.900;2022-12-22T15:26:02;5.07;;;3.55;;
20095;SDS011;10207;50.942;6.900;2022-12-22T15:28:28;8.60;;;4.05;;
20095;SDS011;10207;50.942;6.900;2022-12-22T15:30:53;8.70;;;4.47;;
20095;SDS011;10207;50.942;6.900;2022-12-22T15:33:19;8.30;;;4.50;;
20095;SDS011;10207;50.942;6.900;2022-12-22T15:35:45;7.32;;;4.95;;
20095;SDS011;10207;50.942;6.900;2022-12-22T15:38:12;9.38;;;4.70;;
20095;SDS011;10207;50.942;6.900;2022-12-22T15:40:38;7.90;;;4.80;;
20095;SDS011;10207;50.942;6.900;2022-12-22T15:43:04;10.93;;;5.82;;
20095;SDS011;10207;50.942;6.900;2022-12-22T15:45:30;9.35;;;5.88;;
20095;SDS011;10207;50.942;6.900;2022-12-22T15:47:55;13.57;;;6.00;;
20095;SDS011;10207;50.942;6.900;2022-12-22T15:50:22;10.63;;;5.53;;
20095;SDS011;10207;50.942;6.900;2022-12-22T15:52:54;7.97;;;4.57;;
20095;SDS011;10207;50.942;6.900;2022-12-22T15:55:19;8.35;;;4.57;;
20095;SDS011;10207;50.942;6.900;2022-12-22T15:57:46;8.02;;;5.03;;
20095;SDS011;10207;50.942;6.900;2022-12-22T16:00:13;7.63;;;4.78;;
20095;SDS011;10207;50.942;6.900;2022-12-22T16:02:39;7.75;;;4.07;;
20095;SDS011;10207;50.942;6.900;2022-12-22T16:05:05;5.65;;;3.80;;
20095;SDS011;10207;50.942;6.900;2022-12-22T16:07:31;7.95;;;4.03;;
20095;SDS011;10207;50.942;6.900;2022-12-22T16:09:57;6.97;;;3.65;;
20095;SDS011;10207;50.942;6.900;2022-12-22T16:12:23;5.50;;;3.58;;
20095;SDS011;10207;50.942;6.900;2022-12-22T16:14:50;6.22;;;3.80;;
20095;SDS011;10207;50.942;6.900;2022-12-22T16:17:21;5.10;;;3.28;;
20095;SDS011;10207;50.942;6.900;2022-12-22T16:19:46;4.85;;;3.10;;
20095;SDS011;10207;50.942;6.900;2022-12-22T16:22:13;6.20;;;2.70;;
20095;SDS011;10207;50.942;6.900;2022-12-22T16:24:40;5.00;;;2.90;;
20095;SDS011;10207;50.942;6.900;2022-12-22T16:27:08;5.47;;;3.45;;
20095;SDS011;10207;50.942;6.900;2022-12-22T16:29:34;4.60;;;2.58;;
20095;SDS011;10207;50.942;6.900;2022-12-22T16:32:12;7.13;;;2.67;;
20095;SDS011;10207;50.942;6.900;2022-12-22T16:34:38;4.57;;;2.58;;
20095;SDS011;10207;50.942;6.900;2022-12-22T16:37:04;5.78;;;2.65;;
20095;SDS011;10207;50.942;6.900;2022-12-22T16:39:30;3.50;;;2.38;;
20095;SDS011;10207;50.942;6.900;2022-12-22T16:41:55;3.97;;;2.38;;
20095;SDS011;10207;50.942;6.900;2022-12-22T16:44:21;3.60;;;2.10;;
20095;SDS011;10207;50.942;6.900;2022-12-22T16:46:47;2.35;;;1.42;;
20095;SDS011;10207;50.942;6.900;2022-12-22T16:49:15;4.35;;;1.50;;
20095;SDS011;10207;50.942;6.900;2022-12-22T16:51:47;2.38;;;1.45;;
20095;SDS011;10207;50.942;6.900;2022-12-22T16:54:14;1.80;;;1.23;;